Time;durP1;ratioP1;P1;durP2;ratioP2;P2;SDS_P1;SDS_P2;PMS_P1;PMS_P2;Temp;Humidity;BMP_temperature;BMP_pressure;BME280_temperature;BME280_humidity;BME280_pressure;Samples;Min_cycle;Max_cycle;Signal;HPM_P1;HPM_P2
2022/08/01 00:00:30;;;;;;;15.32;8.95;;;20.30;85.10;;;;;;5060211;28;20052;-76
2022/08/01 00:02:55;;;;;;;18.70;9.32;;;20.30;85.20;;;;;;5061555;28;20075;-77
2022/08/01 00:05:21;;;;;;;15.13;8.82;;;20.30;84.80;;;;;;5060399;28;20070;-77
2022/08/01 00:07:47;;;;;;;16.67;9.38;;;20.30;85.20;;;;;;5055248;28;20056;-78
2022/08/01 00:10:15;;;;;;;17.10;10.45;;;20.30;85.30;;;;;;5057562;28;20107;-76
2022/08/01 00:12:42;;;;;;;16.58;9.68;;;20.30;85.60;;;;;;5057254;28;20454;-77
2022/08/01 00:15:10;;;;;;;18.92;11.35;;;20.20;85.50;;;;;;5054441;28;20507;-76
2022/08/01 00:17:36;;;;;;;16.30;11.18;;;20.20;85.80;;;;;;5054804;28;20037;-76
2022/08/01 00:20:03;;;;;;;18.42;11.65;;;20.30;85.80;;;;;;5062287;28;20402;-77
2022/08/01 00:22:31;;;;;;;17.98;10.68;;;20.30;86.00;;;;;;5058171;28;20051;-76
2022/08/01 00:24:56;;;;;;;16.25;12.15;;;20.20;86.30;;;;;;5063649;28;20032;-76
2022/08/01 00:27:22;;;;;;;14.70;12.57;;;20.20;86.30;;;;;;5064445;28;20298;-76
2022/08/01 00:29:48;;;;;;;23.90;18.77;;;20.10;86.40;;;;;;5061645;28;20431;-77
2022/08/01 00:32:13;;;;;;;19.48;17.38;;;20.10;86.60;;;;;;5059486;28;20610;-77
2022/08/01 00:34:39;;;;;;;24.67;21.98;;;20.10;86.80;;;;;;5061775;28;20036;-80
2022/08/01 00:37:05;;;;;;;26.65;20.08;;;20.10;87.10;;;;;;5060896;28;20037;-77
2022/08/01 00:39:32;;;;;;;18.83;15.00;;;20.10;87.10;;;;;;5062748;28;20040;-78
2022/08/01 00:41:59;;;;;;;15.75;11.30;;;20.10;87.10;;;;;;5065258;28;20089;-77
2022/08/01 00:44:24;;;;;;;17.65;11.10;;;20.00;87.20;;;;;;5064409;28;20045;-77
2022/08/01 00:46:50;;;;;;;14.25;10.88;;;20.00;87.40;;;;;;5065294;28;20044;-76
2022/08/01 00:49:16;;;;;;;16.83;11.38;;;20.00;87.30;;;;;;5071226;28;20399;-76
2022/08/01 00:51:42;;;;;;;19.83;11.75;;;20.00;87.60;;;;;;5066693;28;20501;-76
2022/08/01 00:54:07;;;;;;;16.88;11.57;;;20.00;87.50;;;;;;5069700;28;20768;-76
2022/08/01 00:56:33;;;;;;;19.27;12.05;;;19.90;87.60;;;;;;5052440;28;20033;-77
2022/08/01 00:58:59;;;;;;;18.77;11.15;;;19.90;87.70;;;;;;5055582;28;20043;-78
2022/08/01 01:01:25;;;;;;;18.92;12.48;;;19.90;87.80;;;;;;5060628;28;20529;-79
2022/08/01 01:03:52;;;;;;;17.08;11.68;;;19.90;88.00;;;;;;5059586;28;20075;-77
2022/08/01 01:06:51;;;;;;;17.60;12.93;;;19.90;88.30;;;;;;5059221;28;20060;-76
2022/08/01 01:09:41;;;;;;;20.48;13.35;;;19.90;88.10;;;;;;5021976;28;20033;-78
2022/08/01 01:12:31;;;;;;;18.45;12.38;;;19.90;88.00;;;;;;5062682;28;20602;-76
2022/08/01 01:15:08;;;;;;;20.88;14.75;;;19.90;88.30;;;;;;5063374;28;20033;-76
2022/08/01 01:17:57;;;;;;;23.02;14.20;;;19.90;88.40;;;;;;5058766;28;20056;-76
2022/08/01 01:20:30;;;;;;;20.15;14.13;;;19.90;88.30;;;;;;5059337;28;20114;-78
2022/08/01 01:22:56;;;;;;;21.20;14.38;;;19.90;88.30;;;;;;5062065;28;20037;-75
2022/08/01 01:25:30;;;;;;;21.45;15.95;;;19.90;88.30;;;;;;5063389;28;20110;-80
2022/08/01 01:28:41;;;;;;;26.30;17.65;;;19.80;88.30;;;;;;5067348;28;20119;-76
2022/08/01 01:31:10;;;;;;;28.98;18.50;;;19.80;88.40;;;;;;5049467;28;20052;-76
2022/08/01 01:33:39;;;;;;;26.60;18.33;;;19.80;88.30;;;;;;5061742;28;20051;-77
2022/08/01 01:36:09;;;;;;;25.75;19.98;;;19.80;88.30;;;;;;5061475;28;20048;-76
2022/08/01 01:38:41;;;;;;;32.30;22.10;;;19.70;88.70;;;;;;5060987;28;21401;-77
2022/08/01 01:41:09;;;;;;;27.75;20.70;;;19.70;89.10;;;;;;5060371;28;20048;-78
2022/08/01 01:43:36;;;;;;;33.30;21.27;;;19.60;89.00;;;;;;5061113;28;20036;-80
2022/08/01 01:46:04;;;;;;;28.40;21.15;;;19.70;89.00;;;;;;5063059;28;20515;-77
2022/08/01 01:48:32;;;;;;;29.75;21.55;;;19.70;89.20;;;;;;5064492;28;20617;-77
2022/08/01 01:51:00;;;;;;;31.52;21.80;;;19.70;89.20;;;;;;5055462;28;20041;-78
2022/08/01 01:53:28;;;;;;;36.67;24.42;;;19.70;89.30;;;;;;5063645;28;20039;-77
2022/08/01 01:55:57;;;;;;;31.92;22.88;;;19.70;89.30;;;;;;5064478;28;20060;-76
2022/08/01 01:58:26;;;;;;;33.72;21.77;;;19.70;89.50;;;;;;5055742;28;20036;-76
2022/08/01 02:00:52;;;;;;;32.58;22.52;;;19.70;89.50;;;;;;5062804;28;20037;-76
2022/08/01 02:03:20;;;;;;;35.63;23.63;;;19.70;89.40;;;;;;5054688;28;20463;-76
2022/08/01 02:05:47;;;;;;;40.58;27.05;;;19.70;89.40;;;;;;5063241;28;20043;-76
2022/08/01 02:08:16;;;;;;;35.15;24.52;;;19.70;89.40;;;;;;5056288;28;20109;-76
2022/08/01 02:11:17;;;;;;;37.97;24.98;;;19.60;89.40;;;;;;5062683;28;20055;-76
2022/08/01 02:13:35;;;;;;;35.60;23.35;;;19.60;89.40;;;;;;5061820;28;20064;-76
2022/08/01 02:16:02;;;;;;;34.22;22.10;;;19.60;89.60;;;;;;5062836;28;20060;-79
2022/08/01 02:18:28;;;;;;;36.97;22.85;;;19.60;89.60;;;;;;5058604;28;20056;-77
2022/08/01 02:20:55;;;;;;;36.58;22.13;;;19.50;89.60;;;;;;5063191;28;20146;-76
2022/08/01 02:23:23;;;;;;;35.92;17.90;;;19.50;89.60;;;;;;5052601;28;20044;-75
2022/08/01 02:25:53;;;;;;;32.75;16.92;;;19.50;89.60;;;;;;5050567;28;20045;-80
2022/08/01 02:28:29;;;;;;;29.75;16.88;;;19.40;89.80;;;;;;5053686;28;20491;-77
2022/08/01 02:31:01;;;;;;;29.73;15.73;;;19.40;89.80;;;;;;5059985;28;20048;-76
2022/08/01 02:33:34;;;;;;;26.85;14.32;;;19.30;89.70;;;;;;5059155;28;20387;-76
2022/08/01 02:36:02;;;;;;;26.90;14.13;;;19.20;89.70;;;;;;5060702;28;20032;-76
2022/08/01 02:38:32;;;;;;;23.70;12.80;;;19.10;90.00;;;;;;5056884;28;20652;-78
2022/08/01 02:41:02;;;;;;;27.77;13.10;;;19.10;90.00;;;;;;5056868;28;20056;-76
2022/08/01 02:43:31;;;;;;;26.23;14.32;;;19.10;90.10;;;;;;5052075;28;20464;-77
2022/08/01 02:46:01;;;;;;;24.02;13.45;;;19.10;90.10;;;;;;5057672;28;20352;-76
2022/08/01 02:48:28;;;;;;;29.08;13.90;;;19.10;90.20;;;;;;5066142;28;20029;-76
2022/08/01 02:50:56;;;;;;;22.85;13.63;;;19.20;90.10;;;;;;5061958;28;20131;-77
2022/08/01 02:53:24;;;;;;;24.77;12.23;;;19.20;89.90;;;;;;5049841;28;20033;-76
2022/08/01 02:55:52;;;;;;;22.55;12.40;;;19.10;89.70;;;;;;5059848;28;20037;-76
2022/08/01 02:58:19;;;;;;;25.77;11.95;;;19.20;89.60;;;;;;5054151;28;20753;-76
2022/08/01 03:00:46;;;;;;;23.05;12.27;;;19.10;89.40;;;;;;5056907;28;20127;-78
2022/08/01 03:03:13;;;;;;;24.33;11.55;;;19.10;89.40;;;;;;5053839;28;20066;-78
2022/08/01 03:05:40;;;;;;;19.67;10.98;;;19.10;89.30;;;;;;5063531;28;20040;-76
2022/08/01 03:08:08;;;;;;;20.92;10.70;;;19.10;89.30;;;;;;5050457;28;20082;-76
2022/08/01 03:10:38;;;;;;;17.40;10.40;;;19.10;89.10;;;;;;5062198;28;20072;-76
2022/08/01 03:13:06;;;;;;;16.35;10.25;;;19.20;89.20;;;;;;5060454;28;20054;-77
2022/08/01 03:15:36;;;;;;;18.88;10.13;;;19.10;88.90;;;;;;5064082;28;20150;-79
2022/08/01 03:18:04;;;;;;;15.48;9.50;;;19.10;89.00;;;;;;5059016;28;20063;-76
2022/08/01 03:20:32;;;;;;;14.43;8.57;;;19.10;89.00;;;;;;5056339;28;20472;-77
2022/08/01 03:23:01;;;;;;;18.13;9.10;;;19.10;88.90;;;;;;5059326;28;20032;-76
2022/08/01 03:25:28;;;;;;;16.70;8.38;;;19.20;88.70;;;;;;5061097;28;20495;-76
2022/08/01 03:27:56;;;;;;;15.32;9.25;;;19.20;88.80;;;;;;5060093;28;20480;-79
2022/08/01 03:30:24;;;;;;;17.50;9.57;;;19.30;88.80;;;;;;5061407;28;20063;-76
2022/08/01 03:32:51;;;;;;;14.98;9.05;;;19.30;88.60;;;;;;5062004;28;20183;-76
2022/08/01 03:35:17;;;;;;;16.52;9.20;;;19.30;88.50;;;;;;5056754;28;20051;-76
2022/08/01 03:37:49;;;;;;;16.38;9.30;;;19.30;88.40;;;;;;5060781;28;20032;-76
2022/08/01 03:40:31;;;;;;;15.52;8.93;;;19.30;88.40;;;;;;5051569;28;20049;-77
2022/08/01 03:43:02;;;;;;;15.05;8.15;;;19.30;88.40;;;;;;5051806;28;20068;-76
2022/08/01 03:45:38;;;;;;;12.25;8.73;;;19.30;88.40;;;;;;5052567;28;20510;-77
2022/08/01 03:48:11;;;;;;;14.07;7.70;;;19.30;88.50;;;;;;5062544;28;20479;-78
2022/08/01 03:50:41;;;;;;;17.95;8.63;;;19.30;88.60;;;;;;5060364;28;20658;-76
2022/08/01 03:53:09;;;;;;;15.32;9.00;;;19.30;88.50;;;;;;5056174;28;20052;-77
2022/08/01 03:55:37;;;;;;;9.95;7.20;;;19.30;88.40;;;;;;5056464;28;20510;-76
2022/08/01 03:58:04;;;;;;;15.05;7.97;;;19.30;88.60;;;;;;5058730;28;20040;-77
2022/08/01 04:00:31;;;;;;;13.38;7.45;;;19.40;88.50;;;;;;5056724;28;20072;-79
2022/08/01 04:02:57;;;;;;;15.57;7.70;;;19.40;88.40;;;;;;5060107;28;20041;-76
2022/08/01 04:05:23;;;;;;;11.40;7.88;;;19.40;88.30;;;;;;5059812;28;20227;-75
2022/08/01 04:07:55;;;;;;;15.25;7.82;;;19.40;88.20;;;;;;5055466;28;20037;-77
2022/08/01 04:10:22;;;;;;;14.30;8.00;;;19.40;88.20;;;;;;5006048;28;1405299;-76
2022/08/01 04:12:48;;;;;;;10.32;7.53;;;19.40;88.40;;;;;;5058080;28;20287;-78
2022/08/01 04:15:14;;;;;;;10.75;7.45;;;19.40;88.20;;;;;;5060104;28;20036;-76
2022/08/01 04:17:40;;;;;;;11.77;7.68;;;19.40;88.20;;;;;;5056720;28;20043;-77
2022/08/01 04:20:06;;;;;;;11.70;7.18;;;19.40;88.20;;;;;;5062135;28;20044;-77
2022/08/01 04:22:32;;;;;;;13.35;6.57;;;19.40;88.20;;;;;;5059096;28;20033;-77
2022/08/01 04:25:01;;;;;;;12.32;7.53;;;19.40;88.20;;;;;;5055445;28;20075;-79
2022/08/01 04:27:32;;;;;;;11.48;7.70;;;19.40;88.40;;;;;;5051032;28;20516;-79
2022/08/01 04:30:00;;;;;;;13.07;7.82;;;19.40;88.20;;;;;;5055940;28;20135;-78
2022/08/01 04:32:30;;;;;;;12.70;8.85;;;19.40;88.20;;;;;;5059149;28;20033;-77
2022/08/01 04:34:58;;;;;;;12.63;8.55;;;19.40;88.00;;;;;;5060071;28;20036;-76
2022/08/01 04:37:25;;;;;;;15.00;7.88;;;19.50;87.90;;;;;;5050018;28;20025;-76
2022/08/01 04:39:53;;;;;;;11.82;7.63;;;19.40;88.00;;;;;;5059191;28;20040;-76
2022/08/01 04:42:19;;;;;;;11.50;9.02;;;19.40;88.10;;;;;;5057847;28;20163;-78
2022/08/01 04:44:45;;;;;;;14.75;8.60;;;19.50;88.20;;;;;;5055313;28;20029;-76
2022/08/01 04:47:13;;;;;;;10.65;7.65;;;19.40;88.20;;;;;;5057590;28;20849;-78
2022/08/01 04:49:40;;;;;;;9.98;7.75;;;19.50;88.20;;;;;;5070132;28;20033;-76
2022/08/01 04:52:06;;;;;;;12.70;8.35;;;19.50;88.10;;;;;;5057329;28;20107;-77
2022/08/01 04:54:36;;;;;;;16.23;9.38;;;19.60;88.10;;;;;;5049046;28;20607;-76
2022/08/01 04:57:04;;;;;;;13.32;8.10;;;19.60;87.90;;;;;;5061169;28;20033;-77
2022/08/01 04:59:40;;;;;;;11.55;7.43;;;19.60;87.80;;;;;;5053527;28;20036;-77
2022/08/01 05:02:09;;;;;;;12.73;7.80;;;19.70;87.70;;;;;;5057523;28;20067;-78
2022/08/01 05:04:35;;;;;;;11.00;7.38;;;19.80;87.50;;;;;;5065442;28;20036;-77
2022/08/01 05:07:01;;;;;;;11.73;7.47;;;19.70;87.30;;;;;;5060578;28;20062;-78
2022/08/01 05:09:27;;;;;;;10.38;7.68;;;19.80;87.30;;;;;;5060712;28;20029;-79
2022/08/01 05:11:53;;;;;;;14.55;9.00;;;19.80;87.00;;;;;;5064030;28;20063;-78
2022/08/01 05:14:19;;;;;;;11.20;7.20;;;19.80;87.00;;;;;;5060318;28;20133;-76
2022/08/01 05:16:46;;;;;;;9.32;7.80;;;19.90;87.00;;;;;;5060067;28;20461;-77
2022/08/01 05:19:12;;;;;;;10.57;7.53;;;19.90;86.90;;;;;;5058376;28;20041;-76
2022/08/01 05:21:37;;;;;;;11.45;8.13;;;19.90;86.60;;;;;;5061842;28;20037;-76
2022/08/01 05:24:04;;;;;;;11.52;7.60;;;20.00;86.50;;;;;;5063090;28;20076;-77
2022/08/01 05:26:30;;;;;;;17.45;9.20;;;20.10;86.20;;;;;;5059700;28;20060;-77
2022/08/01 05:28:55;;;;;;;13.30;9.43;;;20.10;86.00;;;;;;5064637;28;20183;-80
2022/08/01 05:31:21;;;;;;;10.15;8.00;;;20.10;85.40;;;;;;5067131;28;20420;-77
2022/08/01 05:33:47;;;;;;;13.27;8.35;;;20.10;85.30;;;;;;5061978;28;20384;-75
2022/08/01 05:36:12;;;;;;;13.25;8.95;;;20.10;85.30;;;;;;5061372;28;20040;-76
2022/08/01 05:38:38;;;;;;;12.88;8.63;;;20.20;85.30;;;;;;5060755;28;20570;-76
2022/08/01 05:41:04;;;;;;;11.95;7.65;;;20.40;84.90;;;;;;5064259;28;20039;-77
2022/08/01 05:43:29;;;;;;;12.95;8.05;;;20.50;84.30;;;;;;5065902;28;20082;-77
2022/08/01 05:45:56;;;;;;;11.32;8.57;;;20.50;84.50;;;;;;5062758;28;20051;-77
2022/08/01 05:48:22;;;;;;;10.90;8.27;;;20.50;84.30;;;;;;5070649;28;20119;-79
2022/08/01 05:50:47;;;;;;;15.50;8.05;;;20.50;84.20;;;;;;5064344;28;20093;-78
2022/08/01 05:53:13;;;;;;;10.68;7.38;;;20.60;84.10;;;;;;5062325;28;20147;-80
2022/08/01 05:55:39;;;;;;;11.93;8.10;;;20.60;84.40;;;;;;5063917;28;20478;-78
2022/08/01 05:58:05;;;;;;;10.10;7.53;;;20.60;84.00;;;;;;5068057;28;20067;-78
2022/08/01 06:00:30;;;;;;;10.88;7.97;;;20.60;84.20;;;;;;5056128;28;20081;-78
2022/08/01 06:02:56;;;;;;;11.18;7.25;;;20.70;83.80;;;;;;5067766;28;20095;-72
2022/08/01 06:05:22;;;;;;;11.02;7.18;;;20.70;83.50;;;;;;5056887;28;20487;-72
2022/08/01 06:07:47;;;;;;;10.35;6.72;;;20.70;83.30;;;;;;5060089;28;20067;-72
2022/08/01 06:10:13;;;;;;;9.10;6.13;;;20.70;83.20;;;;;;5069653;28;20380;-73
2022/08/01 06:12:39;;;;;;;8.80;6.38;;;20.80;83.30;;;;;;5058320;28;20056;-72
2022/08/01 06:15:06;;;;;;;8.95;6.63;;;20.80;83.10;;;;;;5058849;28;20119;-72
2022/08/01 06:17:31;;;;;;;9.05;6.82;;;20.90;82.90;;;;;;5058778;28;20074;-72
2022/08/01 06:19:57;;;;;;;11.23;6.97;;;21.00;81.80;;;;;;5059569;28;20066;-72
2022/08/01 06:22:23;;;;;;;8.63;5.53;;;20.90;81.60;;;;;;5055333;28;20033;-74
2022/08/01 06:24:49;;;;;;;9.60;6.25;;;20.80;81.60;;;;;;5061060;28;20044;-74
2022/08/01 06:27:14;;;;;;;10.63;6.00;;;20.70;81.40;;;;;;5063035;28;20056;-73
2022/08/01 06:29:40;;;;;;;8.07;5.30;;;20.80;80.90;;;;;;5064233;28;20127;-73
2022/08/01 06:32:06;;;;;;;8.93;5.22;;;20.90;81.10;;;;;;5053373;28;20047;-73
2022/08/01 06:34:32;;;;;;;10.07;5.10;;;21.00;80.90;;;;;;5052257;28;20491;-73
2022/08/01 06:36:58;;;;;;;8.57;5.15;;;21.10;80.50;;;;;;5056514;28;20120;-74
2022/08/01 06:39:23;;;;;;;8.60;4.97;;;21.10;79.70;;;;;;5062494;28;20037;-73
2022/08/01 06:41:49;;;;;;;8.77;5.47;;;21.10;79.50;;;;;;5057720;28;20033;-73
2022/08/01 06:44:15;;;;;;;10.40;6.03;;;21.00;79.30;;;;;;5059085;28;20032;-73
2022/08/01 06:46:41;;;;;;;8.38;5.20;;;20.90;79.10;;;;;;5058409;28;20498;-73
2022/08/01 06:49:06;;;;;;;8.40;5.75;;;20.90;79.80;;;;;;5064335;28;20020;-73
2022/08/01 06:51:32;;;;;;;9.48;6.57;;;20.90;80.30;;;;;;5064713;28;20195;-72
2022/08/01 06:53:58;;;;;;;9.70;6.15;;;20.90;79.80;;;;;;5059736;28;20403;-72
2022/08/01 06:56:23;;;;;;;9.23;6.22;;;20.90;80.00;;;;;;5060611;28;20063;-73
2022/08/01 06:58:50;;;;;;;8.32;5.38;;;20.90;80.20;;;;;;5059665;28;20048;-73
2022/08/01 07:01:16;;;;;;;10.32;6.05;;;20.90;79.00;;;;;;5062886;28;20127;-73
2022/08/01 07:03:42;;;;;;;11.68;5.40;;;21.00;78.60;;;;;;5058368;28;20127;-74
2022/08/01 07:06:07;;;;;;;8.77;4.65;;;20.90;78.30;;;;;;5056671;28;20033;-72
2022/08/01 07:08:33;;;;;;;8.07;4.82;;;21.00;78.40;;;;;;5062676;28;20045;-73
2022/08/01 07:10:59;;;;;;;9.75;5.70;;;21.30;77.90;;;;;;5062653;28;20459;-72
2022/08/01 07:13:30;;;;;;;8.13;5.00;;;21.60;76.90;;;;;;5057250;28;20040;-72
2022/08/01 07:15:56;;;;;;;11.40;4.95;;;21.70;76.00;;;;;;5061822;28;20032;-73
2022/08/01 07:18:22;;;;;;;8.88;4.25;;;21.80;75.80;;;;;;5058419;28;20045;-72
2022/08/01 07:20:48;;;;;;;8.20;4.35;;;22.10;76.10;;;;;;5066952;28;20041;-73
2022/08/01 07:23:14;;;;;;;8.85;4.07;;;22.20;73.70;;;;;;5060331;28;20055;-73
2022/08/01 07:25:40;;;;;;;8.65;4.28;;;22.10;73.90;;;;;;5059487;28;20040;-72
2022/08/01 07:28:06;;;;;;;6.20;3.80;;;22.10;74.20;;;;;;5059899;28;20523;-72
2022/08/01 07:30:31;;;;;;;7.90;3.50;;;22.30;73.20;;;;;;5062096;28;20048;-72
2022/08/01 07:32:57;;;;;;;5.45;2.40;;;22.60;72.30;;;;;;5060239;28;20044;-72
2022/08/01 07:35:23;;;;;;;5.70;2.58;;;22.50;69.40;;;;;;5061802;28;20028;-72
2022/08/01 07:37:48;;;;;;;5.50;2.33;;;22.40;69.80;;;;;;5061359;28;20033;-72
2022/08/01 07:40:14;;;;;;;5.82;2.70;;;22.50;70.70;;;;;;5060963;28;20101;-72
2022/08/01 07:42:44;;;;;;;6.55;2.45;;;22.60;68.40;;;;;;5059282;28;20056;-73
2022/08/01 07:45:11;;;;;;;5.05;2.58;;;22.50;68.50;;;;;;5060320;28;20051;-73
2022/08/01 07:47:37;;;;;;;6.95;2.58;;;22.50;70.00;;;;;;5060074;28;20044;-71
2022/08/01 07:50:05;;;;;;;4.53;2.88;;;22.30;69.90;;;;;;5059947;28;20035;-72
2022/08/01 07:52:30;;;;;;;3.97;2.47;;;22.10;69.60;;;;;;5057156;28;20134;-71
2022/08/01 07:54:57;;;;;;;5.07;2.20;;;22.20;70.90;;;;;;5059405;28;20167;-71
2022/08/01 07:57:23;;;;;;;6.22;2.40;;;22.40;69.50;;;;;;5053948;28;20176;-74
2022/08/01 07:59:49;;;;;;;5.28;2.13;;;22.70;69.50;;;;;;5045679;28;20048;-72
2022/08/01 08:02:15;;;;;;;4.47;2.50;;;23.00;67.00;;;;;;5055175;28;20605;-74
2022/08/01 08:04:40;;;;;;;4.90;2.45;;;23.30;66.10;;;;;;5049033;28;20039;-74
2022/08/01 08:07:06;;;;;;;5.93;2.47;;;23.20;67.90;;;;;;5049960;28;20040;-72
2022/08/01 08:09:32;;;;;;;7.68;2.58;;;23.50;67.70;;;;;;5049228;28;20108;-73
2022/08/01 08:11:57;;;;;;;6.10;2.70;;;23.10;67.90;;;;;;5050272;28;20037;-73
2022/08/01 08:14:23;;;;;;;5.15;2.80;;;22.80;67.10;;;;;;5050001;28;20102;-74
2022/08/01 08:16:50;;;;;;;4.85;2.58;;;22.90;67.80;;;;;;5050439;28;20037;-74
2022/08/01 08:19:16;;;;;;;5.20;2.50;;;22.60;67.40;;;;;;5051521;28;20082;-74
2022/08/01 08:21:41;;;;;;;6.43;2.13;;;22.60;69.10;;;;;;5052207;28;20044;-76
2022/08/01 08:24:20;;;;;;;7.88;2.90;;;22.80;68.40;;;;;;5053503;28;20119;-74
2022/08/01 08:26:51;;;;;;;5.97;2.40;;;22.90;68.00;;;;;;5045419;28;20032;-74
2022/08/01 08:29:17;;;;;;;5.40;1.95;;;23.00;68.10;;;;;;5058925;28;20373;-71
2022/08/01 08:31:43;;;;;;;3.63;1.73;;;23.30;67.50;;;;;;5050756;28;20041;-73
2022/08/01 08:34:09;;;;;;;3.83;2.13;;;23.50;66.30;;;;;;5056076;28;20090;-80
2022/08/01 08:36:35;;;;;;;5.85;2.22;;;23.80;64.90;;;;;;5054436;28;20462;-79
2022/08/01 08:39:01;;;;;;;7.18;3.15;;;23.70;65.20;;;;;;5047860;28;20304;-80
2022/08/01 08:41:28;;;;;;;5.55;2.50;;;23.50;65.00;;;;;;5052922;28;20325;-78
2022/08/01 08:43:56;;;;;;;8.27;2.40;;;23.40;65.30;;;;;;5049762;28;20078;-77
2022/08/01 08:46:23;;;;;;;4.50;1.80;;;23.70;64.50;;;;;;5054485;28;20068;-80
2022/08/01 08:48:49;;;;;;;4.65;2.00;;;24.00;63.60;;;;;;5054154;28;20140;-77
2022/08/01 08:51:18;;;;;;;5.07;1.90;;;24.20;63.10;;;;;;5058031;28;20043;-81
2022/08/01 08:53:45;;;;;;;4.88;2.00;;;24.20;62.00;;;;;;5054011;28;20039;-78
2022/08/01 08:56:15;;;;;;;6.43;2.17;;;24.00;62.60;;;;;;5053200;28;20044;-77
2022/08/01 08:58:44;;;;;;;4.25;1.83;;;23.80;62.30;;;;;;5056008;28;20458;-79
2022/08/01 09:01:10;;;;;;;6.32;2.47;;;23.60;64.60;;;;;;5052361;28;20041;-80
2022/08/01 09:03:36;;;;;;;7.88;2.38;;;23.70;64.40;;;;;;5054935;28;20085;-79
2022/08/01 09:06:03;;;;;;;5.28;2.00;;;23.90;64.30;;;;;;5055025;28;20371;-77
2022/08/01 09:08:29;;;;;;;2.70;1.73;;;23.70;64.30;;;;;;5057480;28;20523;-79
2022/08/01 09:10:55;;;;;;;4.80;2.15;;;23.90;64.80;;;;;;5051536;28;20040;-78
2022/08/01 09:13:20;;;;;;;4.50;1.90;;;24.10;64.60;;;;;;5058834;28;20495;-79
2022/08/01 09:15:53;;;;;;;6.07;2.15;;;24.20;63.20;;;;;;5053263;28;20384;-78
2022/08/01 09:18:31;;;;;;;5.70;1.75;;;24.20;62.40;;;;;;5048811;28;20048;-77
2022/08/01 09:21:06;;;;;;;3.17;1.83;;;24.10;62.60;;;;;;5055585;28;20041;-77
2022/08/01 09:23:42;;;;;;;4.75;1.90;;;24.40;62.30;;;;;;5049129;28;20127;-78
2022/08/01 09:26:08;;;;;;;3.40;1.40;;;24.40;61.90;;;;;;5047887;28;20036;-79
2022/08/01 09:28:34;;;;;;;3.03;1.65;;;24.40;60.50;;;;;;5053366;28;20451;-77
2022/08/01 09:31:07;;;;;;;5.53;1.77;;;24.60;60.10;;;;;;5054590;28;20040;-79
2022/08/01 09:33:55;;;;;;;3.42;1.55;;;24.80;59.50;;;;;;5056080;28;20040;-80
2022/08/01 09:36:26;;;;;;;3.28;1.67;;;25.00;59.40;;;;;;5055586;28;20135;-76
2022/08/01 09:38:53;;;;;;;4.18;1.75;;;24.80;59.80;;;;;;5056241;28;20075;-80
2022/08/01 09:41:30;;;;;;;3.75;1.67;;;24.80;59.90;;;;;;5053949;28;20043;-81
2022/08/01 09:43:55;;;;;;;4.47;1.65;;;24.90;58.30;;;;;;5051672;28;20106;-79
2022/08/01 09:46:21;;;;;;;3.97;1.42;;;24.80;59.00;;;;;;5053809;28;20040;-77
2022/08/01 09:48:58;;;;;;;4.50;1.92;;;25.10;57.90;;;;;;5050322;28;20036;-79
2022/08/01 09:51:38;;;;;;;4.55;1.58;;;25.30;56.80;;;;;;5057129;28;20655;-79
2022/08/01 09:54:06;;;;;;;3.50;1.67;;;25.50;57.90;;;;;;5057257;28;20033;-82
2022/08/01 09:56:39;;;;;;;3.92;1.85;;;25.80;57.10;;;;;;5054546;28;20550;-75
2022/08/01 09:59:05;;;;;;;2.78;1.30;;;26.10;55.60;;;;;;5050813;28;20028;-78
2022/08/01 10:01:46;;;;;;;4.47;1.88;;;26.10;56.40;;;;;;5053770;28;20360;-79
2022/08/01 10:04:20;;;;;;;3.30;1.45;;;26.20;54.90;;;;;;5056784;28;20032;-78
2022/08/01 10:06:53;;;;;;;3.22;1.20;;;26.30;54.30;;;;;;5054849;28;20032;-81
2022/08/01 10:09:30;;;;;;;2.85;1.77;;;26.20;54.10;;;;;;5054219;28;20098;-77
2022/08/01 10:11:57;;;;;;;3.47;1.60;;;25.60;55.00;;;;;;5053533;28;20136;-77
2022/08/01 10:14:25;;;;;;;4.07;1.60;;;25.50;56.50;;;;;;5053200;28;20489;-81
2022/08/01 10:16:53;;;;;;;4.07;2.08;;;25.40;56.90;;;;;;5058080;28;20492;-80
2022/08/01 10:19:22;;;;;;;2.58;1.50;;;25.50;54.70;;;;;;5053675;28;20524;-78
2022/08/01 10:21:52;;;;;;;4.00;1.63;;;25.30;55.60;;;;;;5052351;28;20024;-79
2022/08/01 10:24:22;;;;;;;3.83;1.90;;;25.70;54.80;;;;;;5056085;28;20361;-78
2022/08/01 10:26:52;;;;;;;4.18;1.67;;;25.60;55.70;;;;;;5051031;28;20028;-79
2022/08/01 10:29:20;;;;;;;3.67;1.38;;;26.00;55.00;;;;;;5063067;28;20078;-77
2022/08/01 10:31:46;;;;;;;4.05;1.80;;;25.90;55.00;;;;;;5054069;28;20036;-79
2022/08/01 10:34:15;;;;;;;2.80;1.25;;;25.70;55.20;;;;;;5051432;28;20052;-82
2022/08/01 10:36:42;;;;;;;3.53;1.42;;;25.70;56.20;;;;;;5052222;28;20876;-82
2022/08/01 10:39:10;;;;;;;4.50;1.50;;;25.90;56.20;;;;;;5056436;28;20468;-82
2022/08/01 10:41:38;;;;;;;4.07;1.70;;;26.30;56.40;;;;;;5059112;28;20097;-82
2022/08/01 10:44:04;;;;;;;5.68;1.58;;;26.50;55.00;;;;;;5047940;28;20302;-82
2022/08/01 10:46:31;;;;;;;2.55;1.23;;;26.70;53.50;;;;;;5055348;28;20378;-81
2022/08/01 10:49:04;;;;;;;3.13;1.50;;;26.80;53.10;;;;;;5057344;28;20435;-76
2022/08/01 10:51:31;;;;;;;4.45;1.88;;;26.60;53.10;;;;;;5053201;28;20044;-80
2022/08/01 10:53:57;;;;;;;3.83;1.70;;;26.60;54.10;;;;;;5053993;28;20037;-83
2022/08/01 10:56:23;;;;;;;3.80;1.60;;;26.60;52.80;;;;;;5059652;28;20386;-76
2022/08/01 10:59:00;;;;;;;3.42;1.63;;;26.40;53.10;;;;;;5068737;28;20122;-75
2022/08/01 11:01:29;;;;;;;3.88;1.92;;;26.40;54.80;;;;;;5057189;28;20119;-81
2022/08/01 11:04:00;;;;;;;7.93;1.58;;;26.30;54.20;;;;;;5055897;28;20056;-78
2022/08/01 11:07:09;;;;;;;4.28;1.80;;;26.50;54.40;;;;;;5059329;28;20044;-79
2022/08/01 11:09:43;;;;;;;2.97;1.60;;;26.60;52.90;;;;;;5048331;28;20204;-79
2022/08/01 11:12:09;;;;;;;4.07;1.80;;;26.40;54.80;;;;;;5060382;28;20174;-79
2022/08/01 11:14:57;;;;;;;2.30;1.25;;;26.60;54.70;;;;;;5052540;28;20332;-78
2022/08/01 11:17:50;;;;;;;3.88;1.80;;;26.50;54.30;;;;;;5060808;28;20391;-77
2022/08/01 11:20:22;;;;;;;4.10;1.70;;;27.00;51.70;;;;;;5062641;28;20048;-79
2022/08/01 11:23:06;;;;;;;3.75;1.70;;;26.90;51.70;;;;;;5058764;28;20043;-78
2022/08/01 11:25:38;;;;;;;3.22;1.30;;;26.60;52.80;;;;;;5059660;28;20063;-78
2022/08/01 11:28:16;;;;;;;3.13;1.50;;;26.70;53.60;;;;;;5062848;28;20045;-81
2022/08/01 11:30:45;;;;;;;4.00;1.60;;;26.50;52.70;;;;;;5060356;28;20202;-79
2022/08/01 11:33:13;;;;;;;3.85;1.50;;;26.80;52.40;;;;;;5062685;28;20125;-78
2022/08/01 11:36:11;;;;;;;2.30;1.42;;;27.40;52.00;;;;;;5059788;28;20063;-78
2022/08/01 11:38:44;;;;;;;4.88;1.70;;;27.40;50.50;;;;;;5060414;28;20468;-79
2022/08/01 11:41:19;;;;;;;3.75;1.92;;;27.30;49.50;;;;;;5064772;28;20120;-79
2022/08/01 11:44:11;;;;;;;2.95;1.50;;;27.20;49.20;;;;;;5067374;28;20337;-78
2022/08/01 11:46:51;;;;;;;4.30;1.48;;;27.50;49.30;;;;;;5060539;28;20040;-80
2022/08/01 11:49:44;;;;;;;3.33;1.40;;;28.10;48.60;;;;;;5061238;28;20039;-77
2022/08/01 11:52:16;;;;;;;3.08;1.33;;;28.50;46.80;;;;;;5060973;28;20140;-78
2022/08/01 11:54:48;;;;;;;4.55;1.77;;;28.40;48.70;;;;;;5061309;28;20155;-78
2022/08/01 11:57:19;;;;;;;2.47;1.38;;;28.30;46.50;;;;;;5058878;28;20128;-78
2022/08/01 11:59:54;;;;;;;5.13;1.70;;;28.30;46.60;;;;;;5063663;28;20041;-78
2022/08/01 12:02:28;;;;;;;6.30;1.67;;;28.00;46.80;;;;;;5061418;28;20060;-78
2022/08/01 12:04:59;;;;;;;3.95;1.70;;;28.50;46.50;;;;;;5064833;28;20162;-77
2022/08/01 12:07:27;;;;;;;5.72;1.67;;;28.50;44.50;;;;;;5060945;28;20246;-76
2022/08/01 12:10:09;;;;;;;4.35;1.70;;;28.50;45.80;;;;;;5061051;28;20039;-77
2022/08/01 12:12:37;;;;;;;2.50;1.50;;;27.90;46.60;;;;;;5060206;28;20499;-76
2022/08/01 12:15:06;;;;;;;3.67;1.63;;;27.70;47.50;;;;;;5064821;28;20040;-78
2022/08/01 12:17:38;;;;;;;3.80;1.67;;;27.90;47.50;;;;;;5062134;28;20110;-76
2022/08/01 12:20:07;;;;;;;4.57;1.50;;;28.20;47.30;;;;;;5063860;28;20553;-75
2022/08/01 12:22:33;;;;;;;4.30;1.80;;;28.20;46.60;;;;;;5068330;28;20119;-76
2022/08/01 12:25:16;;;;;;;3.85;1.90;;;27.60;48.10;;;;;;5068368;28;20500;-76
2022/08/01 12:27:44;;;;;;;2.80;1.50;;;27.30;48.30;;;;;;5073907;28;20048;-76
2022/08/01 12:30:12;;;;;;;3.58;1.73;;;26.80;48.00;;;;;;5070335;28;20046;-76
2022/08/01 12:32:40;;;;;;;5.28;1.60;;;26.60;50.00;;;;;;5065504;28;20074;-76
2022/08/01 12:35:11;;;;;;;5.00;1.95;;;26.50;49.70;;;;;;5066193;28;20048;-76
2022/08/01 12:37:38;;;;;;;3.83;1.80;;;26.70;49.80;;;;;;5072929;28;20040;-76
2022/08/01 12:40:29;;;;;;;3.70;1.73;;;26.90;50.00;;;;;;5068705;28;20123;-77
2022/08/01 12:42:57;;;;;;;4.30;1.95;;;26.80;48.70;;;;;;5068747;28;20651;-83
2022/08/01 12:45:30;;;;;;;5.00;1.80;;;27.00;48.10;;;;;;5065319;28;20058;-78
2022/08/01 12:48:00;;;;;;;5.30;2.37;;;27.20;48.30;;;;;;5065945;28;20036;-81
2022/08/01 12:50:29;;;;;;;3.50;1.52;;;27.30;47.00;;;;;;5065552;28;20604;-78